createdAt,value
2018-01-24T00:01:16.558Z,10.63
2018-01-24T00:03:44.759Z,10.62
2018-01-24T00:06:12.870Z,10.61
2018-01-24T00:08:40.946Z,10.60
2018-01-24T00:11:13.019Z,10.60
2018-01-24T00:13:40.835Z,10.59
2018-01-24T00:16:08.849Z,10.59
2018-01-24T00:18:36.613Z,10.59
2018-01-24T00:21:12.676Z,10.58
2018-01-24T00:23:40.497Z,10.57
2018-01-24T00:26:08.212Z,10.57
2018-01-24T00:28:36.028Z,10.57
2018-01-24T00:31:03.844Z,10.55
2018-01-24T00:33:31.489Z,10.55
2018-01-24T00:36:03.859Z,10.55
2018-01-24T00:38:32.648Z,10.55
2018-01-24T00:41:02.555Z,10.54
2018-01-24T00:43:30.422Z,10.54
2018-01-24T00:46:02.608Z,10.53
2018-01-24T00:48:30.554Z,10.52
2018-01-24T00:50:58.591Z,10.51
2018-01-24T00:53:26.557Z,10.51
2018-01-24T00:55:56.237Z,10.50
2018-01-24T00:58:26.224Z,10.50
2018-01-24T01:00:54.379Z,10.49
2018-01-24T01:03:22.223Z,10.49
2018-01-24T01:05:50.250Z,10.49
2018-01-24T01:08:18.802Z,10.49
2018-01-24T01:10:46.894Z,10.49
2018-01-24T01:13:14.832Z,10.48
2018-01-24T01:15:42.575Z,10.46
2018-01-24T01:18:10.415Z,10.46
2018-01-24T01:20:38.228Z,10.46
2018-01-24T01:23:06.432Z,10.46
2018-01-24T01:25:34.387Z,10.45
2018-01-24T01:28:02.451Z,10.44
2018-01-24T01:30:32.536Z,10.46
2018-01-24T01:33:00.390Z,10.44
2018-01-24T01:35:28.649Z,10.44
2018-01-24T01:37:56.461Z,10.43
2018-01-24T01:40:26.629Z,10.43
2018-01-24T01:42:58.736Z,10.43
2018-01-24T01:45:26.557Z,10.42
2018-01-24T01:47:54.400Z,10.42
2018-01-24T01:50:22.336Z,10.42
2018-01-24T01:52:50.205Z,10.42
2018-01-24T01:55:18.169Z,10.41
2018-01-24T01:57:46.013Z,10.41
2018-01-24T02:00:14.127Z,10.40
2018-01-24T02:02:42.336Z,10.41
2018-01-24T02:05:10.417Z,10.40
2018-01-24T02:07:38.349Z,10.40
2018-01-24T02:10:06.314Z,10.40
2018-01-24T02:12:34.130Z,10.39
2018-01-24T02:15:01.792Z,10.39
2018-01-24T02:17:29.485Z,10.39
2018-01-24T02:19:57.350Z,10.38
2018-01-24T02:22:25.176Z,10.38
2018-01-24T02:24:53.344Z,10.38
2018-01-24T02:27:21.400Z,10.37
2018-01-24T02:29:53.624Z,10.37
2018-01-24T02:32:21.406Z,10.36
2018-01-24T02:34:49.218Z,10.35
2018-01-24T02:37:19.235Z,10.35
2018-01-24T02:39:47.376Z,10.35
2018-01-24T02:42:17.327Z,10.34
2018-01-24T02:44:45.306Z,10.34
2018-01-24T02:47:13.646Z,10.34
2018-01-24T02:49:41.532Z,10.33
2018-01-24T02:52:11.758Z,10.34
2018-01-24T02:54:41.677Z,10.34
2018-01-24T02:57:09.532Z,10.32
2018-01-24T02:59:37.698Z,10.32
2018-01-24T03:02:05.765Z,10.32
2018-01-24T03:04:33.831Z,10.32
2018-01-24T03:07:01.873Z,10.31
2018-01-24T03:09:29.864Z,10.31
2018-01-24T03:11:59.776Z,10.31
2018-01-24T03:14:28.442Z,10.31
2018-01-24T03:16:56.258Z,10.29
2018-01-24T03:19:26.394Z,10.29
2018-01-24T03:21:54.339Z,10.29
2018-01-24T03:24:22.403Z,10.30
2018-01-24T03:26:50.285Z,10.29
2018-01-24T03:29:20.244Z,10.29
2018-01-24T03:31:48.151Z,10.28
2018-01-24T03:34:18.391Z,10.28
2018-01-24T03:36:46.467Z,10.28
2018-01-24T03:39:16.492Z,10.28
2018-01-24T03:41:44.363Z,10.27
2018-01-24T03:44:12.481Z,10.26
2018-01-24T03:46:42.628Z,10.26
2018-01-24T03:49:10.519Z,10.26
2018-01-24T03:51:38.182Z,10.26
2018-01-24T03:54:08.300Z,10.25
2018-01-24T03:56:36.205Z,10.24
2018-01-24T03:59:04.205Z,10.23
2018-01-24T04:01:34.358Z,10.24
2018-01-24T04:04:06.418Z,10.24
2018-01-24T04:06:34.242Z,10.23
2018-01-24T04:09:04.498Z,10.22
2018-01-24T04:11:32.647Z,10.22
2018-01-24T04:14:00.689Z,10.22
2018-01-24T04:16:28.624Z,10.21
2018-01-24T04:18:56.569Z,10.21
2018-01-24T04:21:24.545Z,10.21
2018-01-24T04:23:52.835Z,10.20
2018-01-24T04:26:20.691Z,10.21
2018-01-24T04:28:48.733Z,10.20
2018-01-24T04:31:16.733Z,10.20
2018-01-24T04:33:44.598Z,10.19
2018-01-24T04:36:14.718Z,10.19
2018-01-24T04:38:44.644Z,10.19
2018-01-24T04:41:12.535Z,10.19
2018-01-24T04:43:40.228Z,10.19
2018-01-24T04:46:08.118Z,10.18
2018-01-24T04:48:36.191Z,10.19
2018-01-24T04:51:04.221Z,10.20
2018-01-24T04:53:32.312Z,10.19
2018-01-24T04:56:00.278Z,10.20
2018-01-24T04:58:30.126Z,10.19
2018-01-24T05:00:58.035Z,10.19
2018-01-24T05:03:30.000Z,10.18
2018-01-24T05:05:58.036Z,10.18
2018-01-24T05:08:25.792Z,10.17
2018-01-24T05:10:53.621Z,10.17
2018-01-24T05:13:21.626Z,10.17
2018-01-24T05:15:49.708Z,10.17
2018-01-24T05:18:17.602Z,10.17
2018-01-24T05:20:49.108Z,10.17
2018-01-24T05:23:17.172Z,10.17
2018-01-24T05:25:45.214Z,10.17
2018-01-24T05:28:13.316Z,10.17
2018-01-24T05:30:42.130Z,10.15
2018-01-24T05:33:10.196Z,10.14
2018-01-24T05:35:38.001Z,10.16
2018-01-24T05:38:05.841Z,10.17
2018-01-24T05:40:34.110Z,10.17
2018-01-24T05:43:03.806Z,10.17
2018-01-24T05:45:31.789Z,10.18
2018-01-24T05:47:59.655Z,10.19
2018-01-24T05:50:27.634Z,10.35
2018-01-24T05:52:59.689Z,10.49
2018-01-24T05:55:27.371Z,10.65
2018-01-24T05:57:55.517Z,10.70
2018-01-24T06:00:23.592Z,10.66
2018-01-24T06:02:51.353Z,10.63
2018-01-24T06:05:19.167Z,10.59
2018-01-24T06:07:46.894Z,10.53
2018-01-24T06:10:14.594Z,10.50
2018-01-24T06:12:42.718Z,10.52
2018-01-24T06:15:10.794Z,10.47
2018-01-24T06:17:38.742Z,10.43
2018-01-24T06:20:06.812Z,10.55
2018-01-24T06:22:34.897Z,10.62
2018-01-24T06:25:02.962Z,10.60
2018-01-24T06:27:30.892Z,10.55
2018-01-24T06:29:58.921Z,10.66
2018-01-24T06:32:26.735Z,10.65
2018-01-24T06:34:54.448Z,10.60
2018-01-24T06:37:22.389Z,10.57
2018-01-24T06:39:50.283Z,10.55
2018-01-24T06:42:19.055Z,10.53
2018-01-24T06:44:50.721Z,10.60
2018-01-24T06:47:18.674Z,10.68
2018-01-24T06:49:46.328Z,10.68
2018-01-24T06:52:16.483Z,10.65
2018-01-24T06:54:45.524Z,10.72
2018-01-24T06:57:13.338Z,10.74
2018-01-24T06:59:41.300Z,10.70
2018-01-24T07:02:09.161Z,10.75
2018-01-24T07:04:36.829Z,10.76
2018-01-24T07:07:07.108Z,10.81
2018-01-24T07:09:35.942Z,10.82
2018-01-24T07:12:15.791Z,10.80
2018-01-24T07:14:45.600Z,10.79
2018-01-24T07:17:13.409Z,10.80
2018-01-24T07:19:41.303Z,10.81
2018-01-24T07:22:09.123Z,10.87
2018-01-24T07:24:37.994Z,10.92
2018-01-24T07:27:06.080Z,10.94
2018-01-24T07:29:33.834Z,10.98
2018-01-24T07:32:01.780Z,11.20
2018-01-24T07:34:29.672Z,11.30
2018-01-24T07:37:02.054Z,11.35
2018-01-24T07:39:29.826Z,11.51
2018-01-24T07:41:57.768Z,11.60
2018-01-24T07:44:25.605Z,11.73
2018-01-24T07:46:53.473Z,11.76
2018-01-24T07:49:21.358Z,11.76
2018-01-24T07:51:49.402Z,11.79
2018-01-24T07:54:19.460Z,11.96
2018-01-24T07:56:47.527Z,12.09
2018-01-24T07:59:17.459Z,12.20
2018-01-24T08:01:45.247Z,12.35
2018-01-24T08:04:15.133Z,12.46
2018-01-24T08:06:42.933Z,12.55
2018-01-24T08:09:12.987Z,12.63
2018-01-24T08:11:40.933Z,12.74
2018-01-24T08:14:08.796Z,12.75
2018-01-24T08:16:36.784Z,12.79
2018-01-24T08:19:04.602Z,12.75
2018-01-24T08:21:32.718Z,12.69
2018-01-24T08:24:00.602Z,12.64
2018-01-24T08:26:28.481Z,12.62
2018-01-24T08:28:56.462Z,12.54
2018-01-24T08:31:26.420Z,12.44
2018-01-24T08:33:54.243Z,12.45
2018-01-24T08:36:21.922Z,12.37
2018-01-24T08:38:49.672Z,12.30
2018-01-24T08:41:17.741Z,12.21
2018-01-24T08:43:45.659Z,12.14
2018-01-24T08:46:14.800Z,12.26
2018-01-24T08:48:43.498Z,12.20
2018-01-24T08:51:15.427Z,12.13
2018-01-24T08:53:43.317Z,12.06
2018-01-24T08:56:13.548Z,12.04
2018-01-24T08:58:41.617Z,12.01
2018-01-24T09:01:09.550Z,12.14
2018-01-24T09:03:37.604Z,12.10
2018-01-24T09:06:06.457Z,12.04
2018-01-24T09:08:34.435Z,11.97
2018-01-24T09:11:02.460Z,11.95
2018-01-24T09:13:30.366Z,11.95
2018-01-24T09:15:58.157Z,11.93
2018-01-24T09:18:26.189Z,11.89
2018-01-24T09:20:57.148Z,11.86
2018-01-24T09:23:29.392Z,11.85
2018-01-24T09:25:57.296Z,11.83
2018-01-24T09:28:25.921Z,11.86
2018-01-24T09:30:53.635Z,11.87
2018-01-24T09:33:21.346Z,11.94
2018-01-24T09:35:49.021Z,11.94
2018-01-24T09:38:16.651Z,11.90
2018-01-24T09:40:46.609Z,11.88
2018-01-24T09:43:14.310Z,11.94
2018-01-24T09:45:41.971Z,12.00
2018-01-24T09:48:09.603Z,11.94
2018-01-24T09:50:37.277Z,11.97
2018-01-24T09:53:04.928Z,11.98
2018-01-24T09:55:32.655Z,11.97
2018-01-24T09:58:04.349Z,12.04
2018-01-24T10:00:32.834Z,12.17
2018-01-24T10:03:00.467Z,12.45
2018-01-24T10:05:28.211Z,12.55
2018-01-24T10:07:55.856Z,12.61
2018-01-24T10:10:25.622Z,12.69
2018-01-24T10:12:53.265Z,12.73
2018-01-24T10:15:21.102Z,12.79
2018-01-24T10:17:48.734Z,13.03
2018-01-24T10:20:16.392Z,13.13
2018-01-24T10:22:46.286Z,13.22
2018-01-24T10:25:13.954Z,13.26
2018-01-24T10:27:43.654Z,13.32
2018-01-24T10:30:12.214Z,13.35
2018-01-24T10:32:39.847Z,13.35
2018-01-24T10:35:07.612Z,13.36
2018-01-24T10:37:35.256Z,13.48
2018-01-24T10:40:05.239Z,13.45
2018-01-24T10:42:33.617Z,13.43
2018-01-24T10:45:05.302Z,13.37
2018-01-24T10:47:32.933Z,13.37
2018-01-24T10:50:00.567Z,13.40
2018-01-24T10:52:30.727Z,13.44
2018-01-24T10:54:58.682Z,13.35
2018-01-24T10:57:26.547Z,13.27
2018-01-24T10:59:54.388Z,13.20
2018-01-24T11:02:26.177Z,13.12
2018-01-24T11:04:54.578Z,13.16
2018-01-24T11:07:22.242Z,13.25
2018-01-24T11:09:51.920Z,13.15
2018-01-24T11:12:20.334Z,13.02
2018-01-24T11:14:47.992Z,12.93
2018-01-24T11:17:15.628Z,12.92
2018-01-24T11:19:48.362Z,12.85
2018-01-24T11:22:16.786Z,12.77
2018-01-24T11:24:44.423Z,12.69
2018-01-24T11:27:12.090Z,12.63
2018-01-24T11:29:39.734Z,12.60
2018-01-24T11:32:07.491Z,12.71
2018-01-24T11:34:35.162Z,12.69
2018-01-24T11:37:02.860Z,12.64
2018-01-24T11:39:32.796Z,12.55
2018-01-24T11:42:01.247Z,12.47
2018-01-24T11:44:28.885Z,12.41
2018-01-24T11:47:00.041Z,12.36
2018-01-24T11:49:28.059Z,12.32
2018-01-24T11:51:55.806Z,12.28
2018-01-24T11:54:25.728Z,12.25
2018-01-24T11:56:53.672Z,12.22
2018-01-24T11:59:21.557Z,12.20
2018-01-24T12:01:51.276Z,12.20
2018-01-24T12:04:18.900Z,12.23
2018-01-24T12:06:46.669Z,12.26
2018-01-24T12:09:14.299Z,12.21
2018-01-24T12:11:44.984Z,12.17
2018-01-24T12:14:12.618Z,12.30
2018-01-24T12:16:41.882Z,12.45
2018-01-24T12:19:09.518Z,12.37
2018-01-24T12:21:37.184Z,12.30
2018-01-24T12:24:04.904Z,12.39
2018-01-24T12:26:32.558Z,12.51
2018-01-24T12:29:00.200Z,12.65
2018-01-24T12:31:27.861Z,12.62
2018-01-24T12:33:59.567Z,12.61
2018-01-24T12:36:27.235Z,12.64
2018-01-24T12:38:58.907Z,12.72
2018-01-24T12:41:28.724Z,12.70
2018-01-24T12:44:00.463Z,12.67
2018-01-24T12:46:30.145Z,12.76
2018-01-24T12:48:57.778Z,12.84
2018-01-24T12:51:25.456Z,12.94
2018-01-24T12:53:57.139Z,13.01
2018-01-24T12:56:24.762Z,12.95
2018-01-24T12:58:52.446Z,12.89
2018-01-24T13:01:20.273Z,12.94
2018-01-24T13:03:47.917Z,12.92
2018-01-24T13:06:17.526Z,12.88
2018-01-24T13:08:46.098Z,12.99
2018-01-24T13:11:13.734Z,13.01
2018-01-24T13:13:43.472Z,13.03
2018-01-24T13:16:11.112Z,13.00
2018-01-24T13:18:39.570Z,12.96
2018-01-24T13:21:07.253Z,12.92
2018-01-24T13:23:34.891Z,13.02
2018-01-24T13:26:02.538Z,13.02
2018-01-24T13:28:32.234Z,12.97
2018-01-24T13:30:59.866Z,13.05
2018-01-24T13:33:29.573Z,13.04
2018-01-24T13:35:59.269Z,13.01
2018-01-24T13:38:26.908Z,13.11
2018-01-24T13:40:54.615Z,13.09
2018-01-24T13:43:23.235Z,13.04
2018-01-24T13:45:50.862Z,13.00
2018-01-24T13:48:22.607Z,12.99
2018-01-24T13:50:50.247Z,12.97
2018-01-24T13:53:19.982Z,12.98
2018-01-24T13:55:48.479Z,13.07
2018-01-24T13:58:16.106Z,13.10
2018-01-24T14:00:43.802Z,13.07
2018-01-24T14:03:13.523Z,13.09
2018-01-24T14:05:45.151Z,13.06
2018-01-24T14:08:17.652Z,13.02
2018-01-24T14:10:47.081Z,12.99
2018-01-24T14:13:14.770Z,13.09
2018-01-24T14:15:42.451Z,13.23
2018-01-24T14:18:10.096Z,13.27
2018-01-24T14:20:46.687Z,13.32
2018-01-24T14:23:16.524Z,13.37
2018-01-24T14:25:44.353Z,13.35
2018-01-24T14:28:17.156Z,13.24
2018-01-24T14:30:44.845Z,13.12
2018-01-24T14:33:12.481Z,13.13
2018-01-24T14:35:41.026Z,13.05
2018-01-24T14:38:09.490Z,12.96
2018-01-24T14:40:42.703Z,12.99
2018-01-24T14:43:10.336Z,12.91
2018-01-24T14:45:38.074Z,12.83
2018-01-24T14:48:05.973Z,12.74
2018-01-24T14:50:33.627Z,12.72
2018-01-24T14:53:05.342Z,12.67
2018-01-24T14:55:32.966Z,12.59
2018-01-24T14:58:00.594Z,12.52
2018-01-24T15:00:30.274Z,12.53
2018-01-24T15:02:58.245Z,12.49
2018-01-24T15:05:25.864Z,12.41
2018-01-24T15:07:54.050Z,12.39
2018-01-24T15:10:28.607Z,12.35
2018-01-24T15:12:56.908Z,12.28
2018-01-24T15:15:28.193Z,12.20
2018-01-24T15:17:55.882Z,12.14
2018-01-24T15:20:24.166Z,12.07
2018-01-24T15:22:56.044Z,12.02
2018-01-24T15:25:23.708Z,11.97
2018-01-24T15:27:53.265Z,11.93
2018-01-24T15:30:21.395Z,11.87
2018-01-24T15:32:49.030Z,11.84
2018-01-24T15:35:19.780Z,11.79
2018-01-24T15:37:47.503Z,11.73
2018-01-24T15:40:15.247Z,11.72
2018-01-24T15:42:42.918Z,11.69
2018-01-24T15:45:10.913Z,11.65
2018-01-24T15:47:40.748Z,11.62
2018-01-24T15:50:09.665Z,11.60
2018-01-24T15:52:37.412Z,11.58
2018-01-24T15:55:05.034Z,11.54
2018-01-24T15:57:32.663Z,11.52
2018-01-24T16:00:00.412Z,11.48
2018-01-24T16:02:28.146Z,11.48
2018-01-24T16:04:55.877Z,11.44
2018-01-24T16:07:23.637Z,11.43
2018-01-24T16:09:51.262Z,11.42
2018-01-24T16:12:18.933Z,11.40
2018-01-24T16:14:46.916Z,11.39
2018-01-24T16:17:14.814Z,11.38
2018-01-24T16:19:42.594Z,11.35
2018-01-24T16:22:10.644Z,11.33
2018-01-24T16:24:38.401Z,11.31
2018-01-24T16:27:06.301Z,11.29
2018-01-24T16:29:37.238Z,11.28
2018-01-24T16:32:10.268Z,11.25
2018-01-24T16:34:37.994Z,11.22
2018-01-24T16:37:05.954Z,11.20
2018-01-24T16:39:34.869Z,11.19
2018-01-24T16:42:02.983Z,11.17
2018-01-24T16:44:31.253Z,11.15
2018-01-24T16:47:00.517Z,11.13
2018-01-24T16:49:28.521Z,11.12
2018-01-24T16:51:56.470Z,11.10
2018-01-24T16:54:25.372Z,11.09
2018-01-24T16:56:55.550Z,11.07
2018-01-24T16:59:24.900Z,11.05
2018-01-24T17:01:52.683Z,11.05
2018-01-24T17:04:27.759Z,11.05
2018-01-24T17:06:55.817Z,11.04
2018-01-24T17:09:27.928Z,11.01
2018-01-24T17:11:56.704Z,11.00
2018-01-24T17:14:25.413Z,10.99
2018-01-24T17:16:53.100Z,10.99
2018-01-24T17:19:20.876Z,10.98
2018-01-24T17:21:48.716Z,10.96
2018-01-24T17:24:17.397Z,10.95
2018-01-24T17:26:51.464Z,10.94
2018-01-24T17:29:19.519Z,10.92
2018-01-24T17:31:49.442Z,10.89
2018-01-24T17:34:17.407Z,10.90
2018-01-24T17:36:45.424Z,10.89
2018-01-24T17:39:13.515Z,10.88
2018-01-24T17:41:43.570Z,10.87
2018-01-24T17:44:11.398Z,10.85
2018-01-24T17:46:39.148Z,10.83
2018-01-24T17:49:06.979Z,10.81
2018-01-24T17:51:35.093Z,10.80
2018-01-24T17:54:03.210Z,10.80
2018-01-24T17:56:31.075Z,10.79
2018-01-24T17:58:58.885Z,10.78
2018-01-24T18:01:26.705Z,10.76
2018-01-24T18:03:54.978Z,10.75
2018-01-24T18:06:22.976Z,10.74
2018-01-24T18:08:50.827Z,10.73
2018-01-24T18:11:18.767Z,10.72
2018-01-24T18:13:48.683Z,10.71
2018-01-24T18:16:16.874Z,10.70
2018-01-24T18:18:44.823Z,10.68
2018-01-24T18:21:13.831Z,10.67
2018-01-24T18:23:42.678Z,10.67
2018-01-24T18:26:10.520Z,10.65
2018-01-24T18:28:40.656Z,10.63
2018-01-24T18:31:09.302Z,10.62
2018-01-24T18:33:38.005Z,10.62
2018-01-24T18:36:10.345Z,10.63
2018-01-24T18:38:38.313Z,10.63
2018-01-24T18:41:06.848Z,10.60
2018-01-24T18:43:35.799Z,10.58
2018-01-24T18:46:03.571Z,10.56
2018-01-24T18:48:31.438Z,10.54
2018-01-24T18:50:59.467Z,10.52
2018-01-24T18:53:27.469Z,10.50
2018-01-24T18:55:55.550Z,10.49
2018-01-24T18:58:25.470Z,10.48
2018-01-24T19:00:56.636Z,10.48
2018-01-24T19:03:25.466Z,10.48
2018-01-24T19:05:54.492Z,10.48
2018-01-24T19:08:30.337Z,10.48
2018-01-24T19:10:58.591Z,10.47
2018-01-24T19:13:26.528Z,10.48
2018-01-24T19:15:55.473Z,10.46
2018-01-24T19:18:23.237Z,10.45
2018-01-24T19:20:51.348Z,10.45
2018-01-24T19:23:21.555Z,10.44
2018-01-24T19:25:49.988Z,10.43
2018-01-24T19:28:19.690Z,10.43
2018-01-24T19:30:48.434Z,10.42
2018-01-24T19:33:16.582Z,10.42
2018-01-24T19:35:44.961Z,10.41
2018-01-24T19:38:15.060Z,10.40
2018-01-24T19:40:43.084Z,10.39
2018-01-24T19:43:15.018Z,10.39
2018-01-24T19:45:43.703Z,10.36
2018-01-24T19:48:15.771Z,10.37
2018-01-24T19:50:43.710Z,10.35
2018-01-24T19:53:12.379Z,10.33
2018-01-24T19:55:40.377Z,10.32
2018-01-24T19:58:11.122Z,10.32
2018-01-24T20:00:39.028Z,10.31
2018-01-24T20:03:07.113Z,10.29
2018-01-24T20:05:35.206Z,10.28
2018-01-24T20:08:03.144Z,10.27
2018-01-24T20:10:33.341Z,10.27
2018-01-24T20:13:01.094Z,10.26
2018-01-24T20:15:28.868Z,10.25
2018-01-24T20:17:58.030Z,10.23
2018-01-24T20:20:26.100Z,10.22
2018-01-24T20:22:53.994Z,10.22
2018-01-24T20:25:24.844Z,10.21
2018-01-24T20:27:53.513Z,10.20
2018-01-24T20:30:21.370Z,10.19
2018-01-24T20:32:53.669Z,10.18
2018-01-24T20:35:21.715Z,10.18
2018-01-24T20:37:49.682Z,10.16
2018-01-24T20:40:17.747Z,10.15
2018-01-24T20:42:46.859Z,10.16
2018-01-24T20:45:16.353Z,10.14
2018-01-24T20:47:44.619Z,10.12
2018-01-24T20:50:14.814Z,10.11
2018-01-24T20:52:43.132Z,10.11
2018-01-24T20:55:10.964Z,10.09
2018-01-24T20:57:41.733Z,10.09
2018-01-24T21:00:12.680Z,10.09
2018-01-24T21:02:40.412Z,10.08
2018-01-24T21:05:10.925Z,10.07
2018-01-24T21:07:42.010Z,10.05
2018-01-24T21:10:11.082Z,10.04
2018-01-24T21:12:39.687Z,10.02
2018-01-24T21:15:07.638Z,10.01
2018-01-24T21:17:36.227Z,10.01
2018-01-24T21:20:06.362Z,10.00
2018-01-24T21:22:34.285Z,10.00
2018-01-24T21:25:02.215Z,10.00
2018-01-24T21:27:31.340Z,9.99
2018-01-24T21:30:11.167Z,9.99
2018-01-24T21:32:53.139Z,9.98
2018-01-24T21:35:35.065Z,9.97
2018-01-24T21:38:02.902Z,9.94
2018-01-24T21:40:32.889Z,9.95
2018-01-24T21:43:00.788Z,9.94
2018-01-24T21:45:32.850Z,9.93
2018-01-24T21:48:01.387Z,9.92
2018-01-24T21:50:31.484Z,9.93
2018-01-24T21:52:59.327Z,9.91
2018-01-24T21:55:27.182Z,9.90
2018-01-24T21:57:57.819Z,9.89
2018-01-24T22:00:27.913Z,9.90
2018-01-24T22:02:57.954Z,9.88
2018-01-24T22:05:25.768Z,9.86
2018-01-24T22:07:55.981Z,9.86
2018-01-24T22:10:26.155Z,9.86
2018-01-24T22:12:54.117Z,9.85
2018-01-24T22:15:25.179Z,9.85
2018-01-24T22:17:53.021Z,9.83
2018-01-24T22:20:20.940Z,9.82
2018-01-24T22:22:50.816Z,9.81
2018-01-24T22:25:18.766Z,9.81
2018-01-24T22:27:46.700Z,9.81
2018-01-24T22:30:14.427Z,9.80
2018-01-24T22:32:42.395Z,9.79
2018-01-24T22:35:16.440Z,9.80
2018-01-24T22:37:44.466Z,9.78
2018-01-24T22:40:13.165Z,9.77
2018-01-24T22:42:40.928Z,9.75
2018-01-24T22:45:08.940Z,9.74
2018-01-24T22:47:36.808Z,9.73
2018-01-24T22:50:04.623Z,9.72
2018-01-24T22:52:32.738Z,9.71
2018-01-24T22:55:03.556Z,9.70
2018-01-24T22:57:31.513Z,9.70
2018-01-24T22:59:59.578Z,9.67
2018-01-24T23:02:27.401Z,9.67
2018-01-24T23:04:55.403Z,9.65
2018-01-24T23:07:23.356Z,9.62
2018-01-24T23:09:51.295Z,9.62
2018-01-24T23:12:19.189Z,9.60
2018-01-24T23:14:47.127Z,9.59
2018-01-24T23:17:15.150Z,9.58
2018-01-24T23:19:43.069Z,9.59
2018-01-24T23:22:11.176Z,9.58
2018-01-24T23:24:43.354Z,9.57
2018-01-24T23:27:11.306Z,9.57
2018-01-24T23:29:39.247Z,9.55
2018-01-24T23:32:07.096Z,9.54
2018-01-24T23:34:35.087Z,9.53
2018-01-24T23:37:03.108Z,9.52
2018-01-24T23:39:35.469Z,9.52
2018-01-24T23:42:05.391Z,9.48
2018-01-24T23:44:33.215Z,9.47
2018-01-24T23:47:01.904Z,9.46
2018-01-24T23:49:29.948Z,9.46
2018-01-24T23:51:57.986Z,9.45
2018-01-24T23:54:25.745Z,9.45
2018-01-24T23:56:55.657Z,9.45
2018-01-24T23:59:23.728Z,9.43
